Time;durP1;ratioP1;P1;durP2;ratioP2;P2;SDS_P1;SDS_P2;PMS_P1;PMS_P2;Temp;Humidity;BMP_temperature;BMP_pressure;BME280_temperature;BME280_humidity;BME280_pressure;Samples;Min_cycle;Max_cycle;Signal;HPM_P1;HPM_P2
2022/10/19 00:01:50;;;;;;;8.10;2.53;;;9.80;99.90;;;;;;5033170;28;20450;-68
2022/10/19 00:04:16;;;;;;;7.47;2.40;;;9.80;99.90;;;;;;5015293;28;20045;-69
2022/10/19 00:06:43;;;;;;;11.50;2.47;;;9.80;99.90;;;;;;5017646;28;20041;-69
2022/10/19 00:09:19;;;;;;;5.57;2.45;;;9.80;99.90;;;;;;5018477;28;20041;-68
2022/10/19 00:11:47;;;;;;;8.27;2.33;;;9.70;99.90;;;;;;5036784;28;20033;-69
2022/10/19 00:14:16;;;;;;;8.25;2.33;;;9.60;99.90;;;;;;5037459;28;20033;-68
2022/10/19 00:16:44;;;;;;;4.00;2.00;;;9.60;99.90;;;;;;5015334;28;20072;-69
2022/10/19 00:19:18;;;;;;;5.63;2.42;;;9.50;99.90;;;;;;5018135;28;20096;-69
2022/10/19 00:21:44;;;;;;;6.70;2.15;;;9.50;99.90;;;;;;5015839;28;20124;-69
2022/10/19 00:24:10;;;;;;;5.10;2.85;;;9.50;99.90;;;;;;5018993;28;20140;-69
2022/10/19 00:26:36;;;;;;;6.47;2.42;;;9.40;99.90;;;;;;5035084;28;20041;-69
2022/10/19 00:29:03;;;;;;;11.27;2.90;;;9.40;99.90;;;;;;5019704;28;20045;-69
2022/10/19 00:31:29;;;;;;;5.88;2.40;;;9.40;99.90;;;;;;5019495;28;20107;-69
2022/10/19 00:33:56;;;;;;;9.65;2.40;;;9.40;99.90;;;;;;5034619;28;20069;-69
2022/10/19 00:36:26;;;;;;;5.50;2.70;;;9.40;99.90;;;;;;5019038;28;20044;-69
2022/10/19 00:38:53;;;;;;;7.43;2.42;;;9.30;99.90;;;;;;5033055;28;20064;-69
2022/10/19 00:41:22;;;;;;;11.15;2.25;;;9.30;99.90;;;;;;5004677;28;20033;-69
2022/10/19 00:43:58;;;;;;;9.93;2.58;;;9.30;99.90;;;;;;5001101;28;20050;-69
2022/10/19 00:46:26;;;;;;;10.90;2.50;;;9.40;99.90;;;;;;4978185;28;20038;-69
2022/10/19 00:48:56;;;;;;;6.88;2.20;;;9.30;99.90;;;;;;4997920;28;20422;-69
2022/10/19 00:51:23;;;;;;;10.40;2.88;;;9.40;99.90;;;;;;4976705;28;20046;-69
2022/10/19 00:53:48;;;;;;;8.07;2.50;;;9.40;99.90;;;;;;4978218;28;20035;-68
2022/10/19 00:56:15;;;;;;;6.53;2.50;;;9.40;99.90;;;;;;4995842;28;20467;-69
2022/10/19 00:58:42;;;;;;;11.55;2.83;;;9.40;99.90;;;;;;4991464;28;20035;-69
2022/10/19 01:01:12;;;;;;;7.40;2.53;;;9.40;99.90;;;;;;4992514;28;20038;-69
2022/10/19 01:03:38;;;;;;;7.40;2.35;;;9.40;99.90;;;;;;4996661;28;20031;-69
2022/10/19 01:06:05;;;;;;;8.80;2.22;;;9.40;99.90;;;;;;4993286;28;20057;-68
2022/10/19 01:08:30;;;;;;;9.70;2.88;;;9.40;99.90;;;;;;4979021;28;20049;-70
2022/10/19 01:11:22;;;;;;;7.13;2.42;;;9.40;99.90;;;;;;4981618;28;20046;-68
2022/10/19 01:14:09;;;;;;;7.60;2.60;;;9.50;99.90;;;;;;4978076;28;21218;-69
2022/10/19 01:17:10;;;;;;;7.80;2.60;;;9.50;99.90;;;;;;4994324;28;20068;-69
2022/10/19 01:20:13;;;;;;;6.65;2.90;;;9.50;99.90;;;;;;4980288;28;20403;-68
2022/10/19 01:23:09;;;;;;;7.95;2.78;;;9.50;99.90;;;;;;4991292;28;20507;-68
2022/10/19 01:25:52;;;;;;;6.40;2.60;;;9.50;99.90;;;;;;4997493;28;20043;-68
2022/10/19 01:28:45;;;;;;;8.57;2.53;;;9.50;99.90;;;;;;4993505;28;21730;-69
2022/10/19 01:31:19;;;;;;;;;;;9.50;99.90;;;;;;4993449;28;20126;-69
2022/10/19 01:34:01;;;;;;;7.43;2.65;;;9.60;99.90;;;;;;4994228;28;20294;-69
2022/10/19 01:36:52;;;;;;;9.25;3.03;;;9.60;99.90;;;;;;4992654;28;20126;-69
2022/10/19 01:39:54;;;;;;;11.15;2.60;;;9.60;99.90;;;;;;4995978;28;20034;-69
2022/10/19 01:42:25;;;;;;;5.43;2.63;;;9.60;99.90;;;;;;4991113;28;20030;-69
2022/10/19 01:44:53;;;;;;;9.32;2.80;;;9.60;99.90;;;;;;4993219;28;20062;-69
2022/10/19 01:47:53;;;;;;;7.03;2.42;;;9.60;99.90;;;;;;4993198;28;20129;-69
2022/10/19 01:50:30;;;;;;;6.70;2.67;;;9.60;99.90;;;;;;4997035;28;20076;-69
2022/10/19 01:52:57;;;;;;;10.85;2.95;;;9.60;99.90;;;;;;4996065;28;20492;-69
2022/10/19 01:55:24;;;;;;;7.13;2.67;;;9.60;99.90;;;;;;4986499;28;20061;-69
2022/10/19 01:58:05;;;;;;;8.85;2.80;;;9.60;99.90;;;;;;4994581;28;20050;-68
2022/10/19 02:00:34;;;;;;;8.18;2.60;;;9.60;99.90;;;;;;4987157;28;20881;-69
2022/10/19 02:03:00;;;;;;;7.05;2.33;;;9.60;99.90;;;;;;4979956;28;20471;-69
2022/10/19 02:05:32;;;;;;;13.40;4.00;;;9.70;99.90;;;;;;4962372;28;20042;-69
2022/10/19 02:08:01;;;;;;;9.68;3.03;;;9.70;99.90;;;;;;4995181;28;20042;-69
2022/10/19 02:10:30;;;;;;;8.10;2.40;;;9.70;99.90;;;;;;4978723;28;20407;-69
2022/10/19 02:12:57;;;;;;;9.20;2.60;;;9.70;99.90;;;;;;4976893;28;20125;-69
2022/10/19 02:15:26;;;;;;;7.13;2.20;;;9.70;99.90;;;;;;4991651;28;20038;-69
2022/10/19 02:17:58;;;;;;;8.68;3.25;;;9.70;99.90;;;;;;4990848;28;20058;-69
2022/10/19 02:20:26;;;;;;;6.72;2.80;;;9.80;99.90;;;;;;4994976;28;20042;-69
2022/10/19 02:22:51;;;;;;;8.77;2.88;;;9.80;99.90;;;;;;4993913;28;20093;-68
2022/10/19 02:25:17;;;;;;;9.93;2.80;;;9.80;99.90;;;;;;4992642;28;20038;-68
2022/10/19 02:27:43;;;;;;;5.43;2.10;;;9.80;99.90;;;;;;4976332;28;20054;-69
2022/10/19 02:30:12;;;;;;;8.32;2.25;;;9.80;99.90;;;;;;4993422;28;20407;-69
2022/10/19 02:32:37;;;;;;;6.80;2.75;;;9.80;99.90;;;;;;4991932;28;20046;-69
2022/10/19 02:35:04;;;;;;;8.20;2.22;;;9.80;99.90;;;;;;4993044;28;20049;-69
2022/10/19 02:37:29;;;;;;;9.15;2.60;;;9.80;99.90;;;;;;4992814;28;20084;-69
2022/10/19 02:39:56;;;;;;;15.90;3.45;;;9.80;99.90;;;;;;4993433;28;20037;-69
2022/10/19 02:42:34;;;;;;;9.32;2.67;;;9.90;99.90;;;;;;4976577;28;20033;-69
2022/10/19 02:45:20;;;;;;;8.02;2.75;;;9.80;99.90;;;;;;5017795;28;20041;-69
2022/10/19 02:47:57;;;;;;;9.60;2.45;;;9.90;99.90;;;;;;5031860;28;20034;-69
2022/10/19 02:50:23;;;;;;;11.88;2.80;;;9.90;99.90;;;;;;5016816;28;20042;-69
2022/10/19 02:52:49;;;;;;;11.80;2.30;;;9.80;99.90;;;;;;5033593;28;20079;-69
2022/10/19 02:55:14;;;;;;;9.65;2.60;;;9.90;99.90;;;;;;5014980;28;20445;-69
2022/10/19 02:57:40;;;;;;;9.45;2.20;;;9.90;99.90;;;;;;5015416;28;20041;-68
2022/10/19 03:00:07;;;;;;;6.35;1.90;;;9.90;99.90;;;;;;4998652;28;20466;-69
2022/10/19 03:02:33;;;;;;;8.63;2.85;;;9.90;99.90;;;;;;5030772;28;20029;-69
2022/10/19 03:04:59;;;;;;;5.32;2.15;;;9.90;99.90;;;;;;5035380;28;20037;-68
2022/10/19 03:07:25;;;;;;;7.05;2.30;;;9.90;99.90;;;;;;5000399;28;20033;-69
2022/10/19 03:09:51;;;;;;;6.57;2.30;;;9.90;99.90;;;;;;5014499;28;20037;-69
2022/10/19 03:12:17;;;;;;;8.20;2.47;;;9.90;99.90;;;;;;5014712;28;20348;-69
2022/10/19 03:14:43;;;;;;;10.30;2.40;;;9.80;99.90;;;;;;5016394;28;20132;-69
2022/10/19 03:17:09;;;;;;;8.05;2.25;;;9.80;99.90;;;;;;5013585;28;20494;-68
2022/10/19 03:19:36;;;;;;;7.45;2.13;;;9.70;99.90;;;;;;4999510;28;20029;-69
2022/10/19 03:22:03;;;;;;;7.68;2.10;;;9.70;99.90;;;;;;4999802;28;20033;-69
2022/10/19 03:24:30;;;;;;;5.05;2.35;;;9.60;99.90;;;;;;5016689;28;20048;-69
2022/10/19 03:26:56;;;;;;;7.03;2.78;;;9.60;99.90;;;;;;5000213;28;20132;-69
2022/10/19 03:29:21;;;;;;;5.18;2.38;;;9.50;99.90;;;;;;4982807;28;20116;-69
2022/10/19 03:31:47;;;;;;;8.52;2.45;;;9.40;99.90;;;;;;5019755;28;20049;-69
2022/10/19 03:34:13;;;;;;;9.13;2.40;;;9.40;99.90;;;;;;5014916;28;20629;-69
2022/10/19 03:36:40;;;;;;;7.93;2.30;;;9.40;99.90;;;;;;5019349;28;20034;-69
2022/10/19 03:39:10;;;;;;;7.07;2.40;;;9.30;99.90;;;;;;5019931;28;20045;-69
2022/10/19 03:41:37;;;;;;;4.05;2.00;;;9.30;99.90;;;;;;5003705;28;20068;-69
2022/10/19 03:44:04;;;;;;;8.35;2.20;;;9.20;99.90;;;;;;5015111;28;20060;-69
2022/10/19 03:46:30;;;;;;;7.10;2.60;;;9.20;99.90;;;;;;5003574;28;20052;-69
2022/10/19 03:48:56;;;;;;;10.70;2.40;;;9.20;99.90;;;;;;5018756;28;20049;-69
2022/10/19 03:51:25;;;;;;;7.07;2.30;;;9.20;99.90;;;;;;5018038;28;20038;-69
2022/10/19 03:53:58;;;;;;;10.80;2.60;;;9.10;99.90;;;;;;5018147;28;20045;-68
2022/10/19 03:56:26;;;;;;;7.22;2.97;;;9.10;99.90;;;;;;5037415;28;20037;-68
2022/10/19 03:58:54;;;;;;;7.68;2.70;;;9.10;99.90;;;;;;4987109;28;20033;-69
2022/10/19 04:01:28;;;;;;;10.35;2.67;;;9.10;99.90;;;;;;5015470;28;20048;-68
2022/10/19 04:03:59;;;;;;;8.85;2.75;;;9.00;99.90;;;;;;5016315;28;20132;-67
2022/10/19 04:06:28;;;;;;;8.57;2.40;;;9.10;99.90;;;;;;5018456;28;20037;-68
2022/10/19 04:08:54;;;;;;;8.52;2.63;;;9.10;99.90;;;;;;5017230;28;20076;-68
2022/10/19 04:11:23;;;;;;;10.02;2.75;;;9.10;99.90;;;;;;5001865;28;20624;-69
2022/10/19 04:13:51;;;;;;;11.45;2.75;;;9.10;99.90;;;;;;5017281;28;20037;-69
2022/10/19 04:16:17;;;;;;;6.00;2.85;;;9.10;99.90;;;;;;5011845;28;20546;-68
2022/10/19 04:18:43;;;;;;;7.93;2.95;;;9.10;99.90;;;;;;5020498;28;20449;-69
2022/10/19 04:21:21;;;;;;;5.85;2.40;;;9.10;99.90;;;;;;5017045;28;20032;-69
2022/10/19 04:23:48;;;;;;;10.40;2.97;;;9.10;99.90;;;;;;5003393;28;20461;-69
2022/10/19 04:26:14;;;;;;;5.00;2.50;;;9.00;99.90;;;;;;5003254;28;20041;-69
2022/10/19 04:28:40;;;;;;;6.72;2.70;;;9.10;99.90;;;;;;5001586;28;20036;-69
2022/10/19 04:31:06;;;;;;;9.68;2.85;;;9.00;99.90;;;;;;5019166;28;20041;-69
2022/10/19 04:33:33;;;;;;;7.35;2.67;;;9.00;99.90;;;;;;5017955;28;20040;-68
2022/10/19 04:36:05;;;;;;;8.73;2.70;;;9.00;99.90;;;;;;5000701;28;20025;-69
2022/10/19 04:38:31;;;;;;;;;;;9.00;99.90;;;;;;5021009;28;20185;-69
2022/10/19 04:41:05;;;;;;;8.88;2.95;;;9.00;99.90;;;;;;5033524;28;19928;-68
2022/10/19 04:43:32;;;;;;;5.88;2.40;;;9.00;99.90;;;;;;5000684;28;20077;-69
2022/10/19 04:46:06;;;;;;;4.43;2.50;;;9.00;99.90;;;;;;5018305;28;20069;-69
2022/10/19 04:48:33;;;;;;;7.63;3.25;;;9.00;99.90;;;;;;5002200;28;20056;-69
2022/10/19 04:50:59;;;;;;;4.50;2.53;;;9.00;99.90;;;;;;5030629;28;20033;-69
2022/10/19 04:53:25;;;;;;;8.63;2.95;;;9.00;99.90;;;;;;5019212;28;20398;-69
2022/10/19 04:55:51;;;;;;;15.50;2.95;;;9.00;99.90;;;;;;5001584;28;20039;-68
2022/10/19 04:58:17;;;;;;;5.45;2.60;;;8.90;99.90;;;;;;5004441;28;20037;-68
2022/10/19 05:00:43;;;;;;;4.10;2.20;;;9.00;99.90;;;;;;5037124;28;20068;-69
2022/10/19 05:03:08;;;;;;;4.75;2.38;;;9.00;99.90;;;;;;5001298;28;20044;-68
2022/10/19 05:05:34;;;;;;;8.45;2.85;;;9.00;99.90;;;;;;5001448;28;20052;-68
2022/10/19 05:08:00;;;;;;;9.75;2.33;;;9.00;99.90;;;;;;5022259;28;20060;-69
2022/10/19 05:10:26;;;;;;;10.80;2.72;;;9.00;99.90;;;;;;5034742;28;20048;-69
2022/10/19 05:12:52;;;;;;;7.20;2.70;;;9.00;99.90;;;;;;5049286;28;20049;-68
2022/10/19 05:15:18;;;;;;;7.72;3.00;;;9.00;99.90;;;;;;5040168;28;20045;-67
2022/10/19 05:17:43;;;;;;;11.02;2.70;;;9.00;99.90;;;;;;5026844;28;20085;-68
2022/10/19 05:20:12;;;;;;;10.13;2.75;;;9.00;99.90;;;;;;5044027;28;20490;-68
2022/10/19 05:22:38;;;;;;;6.28;2.22;;;8.90;99.90;;;;;;5025743;28;20041;-69
2022/10/19 05:25:05;;;;;;;5.47;2.30;;;9.00;99.90;;;;;;5016316;28;20040;-69
2022/10/19 05:27:30;;;;;;;8.70;2.78;;;8.90;99.90;;;;;;5029781;28;20053;-69
2022/10/19 05:29:56;;;;;;;5.85;2.40;;;8.90;99.90;;;;;;5017652;28;20048;-68
2022/10/19 05:32:22;;;;;;;7.65;2.75;;;8.90;99.90;;;;;;5016788;28;20033;-69
2022/10/19 05:34:48;;;;;;;4.45;2.47;;;8.90;99.90;;;;;;4999414;28;20049;-69
2022/10/19 05:37:15;;;;;;;9.10;2.60;;;8.90;99.90;;;;;;5014585;28;20049;-69
2022/10/19 05:39:41;;;;;;;10.50;3.10;;;8.80;99.90;;;;;;4999854;28;20045;-69
2022/10/19 05:42:07;;;;;;;9.77;2.70;;;8.80;99.90;;;;;;5034982;28;20112;-69
2022/10/19 05:44:33;;;;;;;3.92;2.22;;;8.80;99.90;;;;;;5034316;28;20632;-69
2022/10/19 05:46:59;;;;;;;10.27;2.47;;;8.80;99.90;;;;;;5017119;28;20041;-69
2022/10/19 05:49:25;;;;;;;6.60;2.35;;;8.70;99.90;;;;;;5013806;28;20662;-69
2022/10/19 05:51:51;;;;;;;8.23;3.03;;;8.70;99.90;;;;;;4990674;28;20128;-69
2022/10/19 05:54:16;;;;;;;10.45;2.72;;;8.80;99.90;;;;;;5026843;28;20372;-69
2022/10/19 05:56:43;;;;;;;9.35;2.72;;;8.70;99.90;;;;;;5000183;28;20690;-69
2022/10/19 05:59:13;;;;;;;8.75;3.45;;;8.70;99.90;;;;;;4983464;28;20044;-68
2022/10/19 06:01:38;;;;;;;9.80;3.60;;;8.70;99.90;;;;;;5014523;28;20045;-69
2022/10/19 06:04:06;;;;;;;9.88;3.03;;;8.70;99.90;;;;;;4982983;28;20537;-69
2022/10/19 06:06:32;;;;;;;7.30;2.83;;;8.70;99.90;;;;;;4996093;28;20056;-68
2022/10/19 06:08:59;;;;;;;7.82;3.92;;;8.70;99.90;;;;;;5001711;28;20038;-69
2022/10/19 06:11:29;;;;;;;8.20;2.60;;;8.70;99.90;;;;;;5002281;28;20411;-69
2022/10/19 06:13:57;;;;;;;6.07;3.17;;;8.70;99.90;;;;;;5019296;28;20048;-69
2022/10/19 06:16:25;;;;;;;8.48;2.90;;;8.70;99.90;;;;;;4985798;28;20079;-69
2022/10/19 06:18:52;;;;;;;11.38;3.20;;;8.60;99.90;;;;;;5001903;28;20052;-69
2022/10/19 06:21:20;;;;;;;6.70;2.78;;;8.60;99.90;;;;;;5017237;28;20041;-69
2022/10/19 06:23:57;;;;;;;7.03;2.65;;;8.60;99.90;;;;;;5008993;28;20399;-69
2022/10/19 06:26:23;;;;;;;9.70;4.80;;;8.60;99.90;;;;;;5016890;28;20068;-69
2022/10/19 06:28:54;;;;;;;8.63;4.78;;;8.60;99.90;;;;;;5017072;28;20051;-69
2022/10/19 06:31:20;;;;;;;14.02;3.88;;;8.50;99.90;;;;;;4999414;28;20304;-69
2022/10/19 06:33:46;;;;;;;7.90;3.22;;;8.50;99.90;;;;;;5016597;28;20517;-69
2022/10/19 06:36:18;;;;;;;4.32;2.42;;;8.50;99.90;;;;;;5016610;28;20091;-69
2022/10/19 06:38:44;;;;;;;7.60;2.70;;;8.50;99.90;;;;;;4998841;28;20079;-69
2022/10/19 06:41:11;;;;;;;9.50;3.22;;;8.50;99.90;;;;;;5013765;28;20041;-69
2022/10/19 06:43:37;;;;;;;10.80;2.90;;;8.50;99.90;;;;;;5012042;28;20557;-69
2022/10/19 06:46:07;;;;;;;14.88;3.15;;;8.50;99.90;;;;;;5029463;28;20491;-69
2022/10/19 06:48:34;;;;;;;10.07;3.45;;;8.50;99.90;;;;;;5029877;28;20037;-69
2022/10/19 06:51:02;;;;;;;8.52;2.92;;;8.50;99.90;;;;;;4976124;28;20681;-69
2022/10/19 06:53:28;;;;;;;10.27;3.25;;;8.50;99.90;;;;;;5011187;28;20049;-69
2022/10/19 06:55:58;;;;;;;8.23;2.38;;;8.50;99.90;;;;;;5011923;28;20038;-69
2022/10/19 06:58:25;;;;;;;11.52;3.45;;;8.60;99.90;;;;;;5009929;28;20120;-69
2022/10/19 07:00:56;;;;;;;13.90;2.83;;;8.60;99.90;;;;;;5012158;28;20049;-69
2022/10/19 07:03:23;;;;;;;15.20;3.42;;;8.70;99.90;;;;;;5011182;28;21641;-69
2022/10/19 07:05:57;;;;;;;11.63;2.65;;;8.70;99.90;;;;;;5012851;28;20037;-69
2022/10/19 07:08:23;;;;;;;8.20;2.40;;;8.70;99.90;;;;;;5011044;28;20037;-69
2022/10/19 07:10:56;;;;;;;7.90;2.47;;;8.80;99.90;;;;;;4995030;28;20040;-69
2022/10/19 07:13:22;;;;;;;9.00;2.40;;;8.90;99.90;;;;;;5011417;28;20091;-69
2022/10/19 07:15:48;;;;;;;12.75;2.47;;;8.90;99.90;;;;;;5010846;28;20483;-69
2022/10/19 07:18:15;;;;;;;9.73;2.45;;;9.00;99.90;;;;;;5029300;28;20094;-69
2022/10/19 07:20:41;;;;;;;10.95;2.90;;;9.00;99.90;;;;;;5028800;28;20124;-69
2022/10/19 07:23:07;;;;;;;11.43;2.65;;;9.10;99.90;;;;;;5011649;28;20037;-69
2022/10/19 07:25:32;;;;;;;12.25;2.83;;;9.10;99.90;;;;;;4996645;28;20046;-69
2022/10/19 07:27:58;;;;;;;12.57;3.40;;;9.10;99.90;;;;;;4995223;28;20402;-69
2022/10/19 07:30:24;;;;;;;9.90;2.92;;;9.20;99.90;;;;;;5011392;28;20041;-69
2022/10/19 07:32:50;;;;;;;18.92;3.20;;;9.20;99.90;;;;;;4995363;28;20422;-69
2022/10/19 07:35:15;;;;;;;11.57;2.53;;;9.30;99.90;;;;;;4997142;28;20042;-69
2022/10/19 07:37:41;;;;;;;7.40;2.47;;;9.30;99.90;;;;;;4994660;28;20051;-69
2022/10/19 07:40:07;;;;;;;9.98;2.70;;;9.40;99.90;;;;;;4994944;28;20029;-69
2022/10/19 07:42:36;;;;;;;10.13;2.22;;;9.50;99.90;;;;;;5011436;28;20075;-69
2022/10/19 07:45:02;;;;;;;8.10;2.83;;;9.50;99.90;;;;;;4994956;28;20137;-69
2022/10/19 07:47:28;;;;;;;10.13;2.47;;;9.60;99.90;;;;;;5013026;28;20041;-69
2022/10/19 07:49:54;;;;;;;12.00;2.92;;;9.70;99.90;;;;;;5028688;28;20470;-69
2022/10/19 07:52:20;;;;;;;14.85;3.25;;;9.70;99.90;;;;;;5028659;28;20046;-69
2022/10/19 07:54:48;;;;;;;13.93;2.50;;;9.80;99.90;;;;;;5010950;28;20045;-69
2022/10/19 07:57:14;;;;;;;10.57;3.05;;;9.80;99.90;;;;;;5011989;28;20067;-69
2022/10/19 07:59:40;;;;;;;13.27;2.78;;;9.90;99.90;;;;;;5028579;28;20491;-69
2022/10/19 08:02:15;;;;;;;12.63;3.35;;;10.00;99.90;;;;;;5011628;28;20037;-69
2022/10/19 08:04:40;;;;;;;12.15;3.42;;;10.00;99.90;;;;;;5013803;28;20124;-69
2022/10/19 08:07:06;;;;;;;8.07;2.78;;;10.10;99.90;;;;;;5032595;28;20590;-69
2022/10/19 08:09:32;;;;;;;16.35;3.38;;;10.20;99.90;;;;;;4999270;28;20045;-69
2022/10/19 08:11:57;;;;;;;9.90;2.70;;;10.20;99.90;;;;;;4997973;28;20048;-69
2022/10/19 08:14:23;;;;;;;10.23;2.53;;;10.30;99.90;;;;;;4998241;28;20729;-69
2022/10/19 08:16:50;;;;;;;9.15;2.58;;;10.40;99.90;;;;;;5014875;28;20034;-69
2022/10/19 08:19:15;;;;;;;11.13;2.50;;;10.40;99.90;;;;;;5015006;28;20087;-69
2022/10/19 08:21:45;;;;;;;11.68;2.30;;;10.50;99.90;;;;;;4998111;28;20049;-69
2022/10/19 08:24:13;;;;;;;8.13;2.45;;;10.60;99.90;;;;;;5031669;28;20029;-69
2022/10/19 08:26:39;;;;;;;11.68;2.92;;;10.60;99.90;;;;;;5013458;28;20123;-69
2022/10/19 08:29:13;;;;;;;8.10;2.47;;;10.70;99.90;;;;;;4997788;28;20037;-69
2022/10/19 08:31:41;;;;;;;13.55;3.03;;;10.80;99.90;;;;;;5012124;28;20495;-69
2022/10/19 08:34:07;;;;;;;12.43;3.13;;;10.80;99.90;;;;;;5013751;28;20041;-69
2022/10/19 08:36:34;;;;;;;10.35;2.85;;;10.90;99.90;;;;;;5014341;28;20091;-69
2022/10/19 08:39:01;;;;;;;17.92;3.03;;;11.00;99.90;;;;;;5014393;28;20072;-69
2022/10/19 08:41:50;;;;;;;5.88;2.13;;;11.00;99.90;;;;;;5014961;28;20041;-69
2022/10/19 08:44:52;;;;;;;11.50;2.63;;;11.10;99.90;;;;;;5031504;28;20132;-69
2022/10/19 08:47:20;;;;;;;12.20;3.05;;;11.10;99.90;;;;;;5013553;28;20048;-69
2022/10/19 08:49:47;;;;;;;14.82;2.70;;;11.20;99.90;;;;;;5017698;28;20042;-69
2022/10/19 08:52:18;;;;;;;11.25;2.95;;;11.20;99.90;;;;;;5013690;28;20054;-69
2022/10/19 08:54:57;;;;;;;15.60;2.60;;;11.30;99.90;;;;;;5013697;28;20045;-69
2022/10/19 08:58:00;;;;;;;7.18;2.10;;;11.30;99.90;;;;;;5031060;28;20037;-69
2022/10/19 09:00:41;;;;;;;6.07;1.52;;;11.30;99.90;;;;;;5015013;28;20387;-69
2022/10/19 09:03:34;;;;;;;8.05;1.65;;;11.30;99.90;;;;;;5012973;28;20107;-69
2022/10/19 09:06:18;;;;;;;;;;;11.40;99.90;;;;;;5014163;28;20376;-69
2022/10/19 09:08:45;;;;;;;10.32;2.15;;;11.40;99.90;;;;;;5032061;28;19925;-69
2022/10/19 09:11:11;;;;;;;10.00;2.10;;;11.50;99.90;;;;;;5031035;28;20039;-69
2022/10/19 09:13:41;;;;;;;13.90;2.60;;;11.50;99.90;;;;;;5014266;28;20041;-69
2022/10/19 09:16:16;;;;;;;8.70;1.88;;;11.60;99.90;;;;;;5013072;28;20038;-69
2022/10/19 09:18:43;;;;;;;7.60;1.88;;;11.70;99.90;;;;;;5013192;28;20073;-69
2022/10/19 09:21:13;;;;;;;6.28;1.98;;;11.60;99.90;;;;;;5013315;28;20048;-69
2022/10/19 09:23:46;;;;;;;12.07;1.90;;;11.70;99.90;;;;;;5031863;28;20096;-69
2022/10/19 09:26:15;;;;;;;11.18;2.80;;;11.80;99.90;;;;;;5014806;28;20041;-69
2022/10/19 09:29:13;;;;;;;9.23;2.10;;;11.80;99.90;;;;;;5013067;28;20041;-69
2022/10/19 09:31:43;;;;;;;4.93;2.10;;;11.80;99.90;;;;;;5010070;28;20057;-69
2022/10/19 09:34:22;;;;;;;8.70;1.83;;;11.90;99.90;;;;;;5001048;28;20045;-69
2022/10/19 09:36:53;;;;;;;10.52;3.03;;;11.90;99.90;;;;;;5030246;28;20044;-69
2022/10/19 09:39:19;;;;;;;12.48;2.55;;;12.00;99.90;;;;;;5025708;28;20073;-69
2022/10/19 09:42:07;;;;;;;8.63;2.58;;;12.00;99.90;;;;;;5004176;28;20041;-69
2022/10/19 09:44:33;;;;;;;7.72;2.67;;;12.10;99.90;;;;;;4988607;28;20124;-69
2022/10/19 09:47:18;;;;;;;10.10;2.40;;;12.10;99.90;;;;;;4969549;28;20611;-69
2022/10/19 09:49:46;;;;;;;5.80;2.25;;;12.10;99.90;;;;;;5000698;28;20056;-69
2022/10/19 09:52:31;;;;;;;10.15;2.42;;;12.10;99.90;;;;;;5002223;28;20099;-69
2022/10/19 09:55:04;;;;;;;3.78;2.15;;;12.10;99.90;;;;;;5020462;28;20124;-69
2022/10/19 09:57:30;;;;;;;5.13;2.42;;;12.10;99.90;;;;;;5001724;28;20140;-68
2022/10/19 09:59:56;;;;;;;9.35;2.17;;;12.10;99.90;;;;;;5004985;28;20052;-68
2022/10/19 10:02:30;;;;;;;7.22;2.55;;;12.10;99.90;;;;;;5005324;28;20406;-68
2022/10/19 10:05:09;;;;;;;7.07;2.45;;;12.10;99.90;;;;;;5005535;28;20120;-69
2022/10/19 10:07:37;;;;;;;5.57;2.17;;;12.10;99.90;;;;;;5005204;28;20089;-68
2022/10/19 10:10:27;;;;;;;6.72;2.10;;;12.20;99.90;;;;;;5003477;28;20049;-69
2022/10/19 10:12:53;;;;;;;9.68;3.05;;;12.20;99.90;;;;;;5021182;28;20037;-69
2022/10/19 10:15:41;;;;;;;10.20;2.60;;;12.20;99.90;;;;;;4989143;28;20041;-69
2022/10/19 10:18:14;;;;;;;12.77;2.63;;;12.20;99.90;;;;;;4990176;28;20045;-69
2022/10/19 10:20:59;;;;;;;6.90;2.35;;;12.20;99.90;;;;;;4990315;28;20049;-69
2022/10/19 10:23:30;;;;;;;9.23;2.20;;;12.20;99.90;;;;;;5004507;28;20065;-69
2022/10/19 10:25:57;;;;;;;9.07;2.00;;;12.20;99.90;;;;;;5004415;28;20117;-69
2022/10/19 10:28:26;;;;;;;6.95;2.00;;;12.20;99.90;;;;;;5021872;28;20025;-69
2022/10/19 10:31:01;;;;;;;14.02;2.53;;;12.20;99.90;;;;;;5022797;28;20048;-69
2022/10/19 10:33:29;;;;;;;8.18;2.00;;;12.30;99.90;;;;;;5004277;28;20112;-69
2022/10/19 10:36:02;;;;;;;7.22;2.60;;;12.20;99.90;;;;;;5004598;28;20042;-69
2022/10/19 10:38:40;;;;;;;8.07;2.08;;;12.30;99.90;;;;;;5004937;28;20530;-69
2022/10/19 10:41:27;;;;;;;9.02;2.17;;;12.30;99.90;;;;;;5004399;28;20045;-69
2022/10/19 10:44:05;;;;;;;7.63;2.80;;;12.30;99.90;;;;;;5004744;28;20124;-68
2022/10/19 10:46:40;;;;;;;7.55;1.90;;;12.40;99.90;;;;;;5022229;28;20056;-69
2022/10/19 10:49:13;;;;;;;6.55;2.40;;;12.40;99.90;;;;;;4988245;28;20407;-69
2022/10/19 10:51:44;;;;;;;8.10;2.25;;;12.40;99.90;;;;;;5021108;28;20119;-69
2022/10/19 10:54:21;;;;;;;8.68;2.08;;;12.40;99.90;;;;;;5021183;28;20033;-69
2022/10/19 10:57:15;;;;;;;9.48;2.00;;;12.50;99.90;;;;;;4997539;28;20096;-69
2022/10/19 11:00:09;;;;;;;12.93;2.20;;;12.50;99.90;;;;;;5004338;28;20569;-69
2022/10/19 11:02:53;;;;;;;8.43;1.98;;;12.50;99.90;;;;;;5004132;28;20159;-69
2022/10/19 11:05:27;;;;;;;9.27;2.00;;;12.60;99.90;;;;;;4987504;28;20160;-69
2022/10/19 11:08:25;;;;;;;3.60;1.67;;;12.60;99.90;;;;;;5004001;28;20132;-69
2022/10/19 11:11:09;;;;;;;9.05;2.17;;;12.60;99.90;;;;;;4971047;28;20175;-69
2022/10/19 11:13:41;;;;;;;8.73;1.98;;;12.70;99.90;;;;;;5003989;28;20108;-69
2022/10/19 11:16:30;;;;;;;7.22;1.73;;;12.70;99.90;;;;;;5003630;28;20042;-69
2022/10/19 11:19:21;;;;;;;7.88;2.53;;;12.80;99.90;;;;;;5002123;28;20072;-69
2022/10/19 11:22:07;;;;;;;8.23;2.17;;;13.00;99.90;;;;;;4986058;28;20621;-69
2022/10/19 11:24:56;;;;;;;7.82;2.05;;;13.10;99.90;;;;;;5002559;28;20069;-69
2022/10/19 11:28:00;;;;;;;8.05;2.13;;;13.30;99.90;;;;;;5002150;28;20757;-69
2022/10/19 11:30:28;;;;;;;6.32;2.13;;;13.40;99.90;;;;;;4979395;28;20056;-69
2022/10/19 11:33:10;;;;;;;5.97;1.73;;;13.40;99.90;;;;;;4987566;28;20045;-69
2022/10/19 11:35:51;;;;;;;13.90;2.67;;;13.40;99.90;;;;;;5004235;28;20045;-69
2022/10/19 11:38:47;;;;;;;6.70;2.00;;;13.20;99.90;;;;;;5005517;28;20092;-69
2022/10/19 11:41:37;;;;;;;6.35;2.08;;;13.10;99.90;;;;;;5025224;28;20076;-69
2022/10/19 11:44:30;;;;;;;8.23;2.20;;;13.10;99.90;;;;;;5007473;28;20061;-69
2022/10/19 11:47:14;;;;;;;5.80;2.13;;;13.10;99.90;;;;;;5006005;28;20518;-69
2022/10/19 11:49:57;;;;;;;5.18;2.00;;;13.20;99.90;;;;;;4991048;28;20702;-69
2022/10/19 11:52:55;;;;;;;7.63;2.10;;;13.30;99.90;;;;;;5007728;28;20050;-69
2022/10/19 11:55:30;;;;;;;6.45;1.80;;;13.30;99.90;;;;;;4991703;28;20049;-69
2022/10/19 11:58:26;;;;;;;14.65;2.22;;;13.40;99.90;;;;;;5025392;28;20045;-69
2022/10/19 12:00:55;;;;;;;8.00;1.90;;;13.50;99.90;;;;;;5006921;28;20049;-69
2022/10/19 12:03:47;;;;;;;6.75;2.30;;;13.60;99.90;;;;;;5006304;28;20073;-69
2022/10/19 12:06:21;;;;;;;7.50;2.22;;;13.70;99.90;;;;;;5007013;28;20076;-69
2022/10/19 12:09:07;;;;;;;7.82;2.25;;;13.60;99.90;;;;;;5007276;28;20046;-69
2022/10/19 12:11:52;;;;;;;5.90;2.55;;;13.70;99.90;;;;;;5007694;28;20041;-69
2022/10/19 12:14:28;;;;;;;7.60;2.20;;;13.60;99.90;;;;;;5007017;28;20041;-69
2022/10/19 12:16:58;;;;;;;9.48;2.40;;;13.60;99.90;;;;;;5024649;28;20042;-69
2022/10/19 12:19:31;;;;;;;7.03;2.60;;;13.50;99.90;;;;;;5006891;28;20057;-69
2022/10/19 12:22:03;;;;;;;7.07;3.03;;;13.40;99.90;;;;;;5024721;28;20084;-70
2022/10/19 12:24:31;;;;;;;6.38;2.97;;;13.30;99.90;;;;;;5006935;28;20115;-69
2022/10/19 12:26:58;;;;;;;4.43;2.83;;;13.30;99.90;;;;;;5006779;28;20045;-69
2022/10/19 12:29:38;;;;;;;7.70;3.70;;;13.30;99.90;;;;;;5007524;28;20053;-69
2022/10/19 12:32:06;;;;;;;9.48;3.05;;;13.20;99.90;;;;;;5006809;28;20046;-70
2022/10/19 12:34:45;;;;;;;8.18;3.20;;;13.20;99.90;;;;;;5006747;28;20118;-69
2022/10/19 12:37:23;;;;;;;138.63;19.20;;;13.10;99.90;;;;;;5007266;28;20138;-69
2022/10/19 12:40:16;;;;;;;10.73;4.28;;;13.10;99.90;;;;;;5006819;28;20120;-68
2022/10/19 12:42:41;;;;;;;;;;;13.10;99.90;;;;;;5007094;28;20052;-69
2022/10/19 12:45:30;;;;;;;8.15;3.75;;;13.00;99.90;;;;;;5005225;28;19921;-69
2022/10/19 12:48:08;;;;;;;6.97;3.78;;;13.00;99.90;;;;;;5006965;28;20478;-69
2022/10/19 12:50:49;;;;;;;10.70;3.92;;;13.10;99.90;;;;;;5005265;28;20103;-69
2022/10/19 12:53:39;;;;;;;8.38;3.85;;;13.20;99.90;;;;;;4989889;28;20049;-69
2022/10/19 12:56:08;;;;;;;10.07;3.83;;;13.20;99.90;;;;;;5005802;28;20038;-69
2022/10/19 12:58:43;;;;;;;8.80;3.78;;;13.20;99.90;;;;;;5006056;28;20038;-69
2022/10/19 13:01:25;;;;;;;9.65;3.95;;;13.30;99.90;;;;;;5005234;28;20163;-69
2022/10/19 13:04:10;;;;;;;13.65;4.47;;;13.30;99.90;;;;;;5005646;28;20080;-69
2022/10/19 13:06:41;;;;;;;11.93;4.47;;;13.30;99.90;;;;;;5006120;28;20085;-69
2022/10/19 13:09:18;;;;;;;7.75;4.30;;;13.30;99.90;;;;;;5006137;28;20056;-69
2022/10/19 13:12:12;;;;;;;11.07;4.25;;;13.30;99.90;;;;;;4989572;28;20069;-69
2022/10/19 13:14:54;;;;;;;7.60;3.97;;;13.30;99.90;;;;;;5023279;28;20034;-69
2022/10/19 13:17:45;;;;;;;7.87;3.90;;;13.30;99.90;;;;;;5005396;28;20045;-69